createdAt,value
2018-04-25T00:02:06.969Z,13.60
2018-04-25T00:04:35.194Z,13.60
2018-04-25T00:07:02.626Z,13.60
2018-04-25T00:09:30.069Z,13.60
2018-04-25T00:11:57.513Z,13.60
2018-04-25T00:14:26.712Z,13.60
2018-04-25T00:16:54.913Z,13.60
2018-04-25T00:19:22.361Z,13.60
2018-04-25T00:21:49.792Z,13.60
2018-04-25T00:24:18.086Z,13.60
2018-04-25T00:26:45.428Z,13.60
2018-04-25T00:29:12.877Z,13.60
2018-04-25T00:31:41.079Z,13.60
2018-04-25T00:34:08.518Z,13.60
2018-04-25T00:36:36.720Z,13.60
2018-04-25T00:39:04.178Z,13.60
2018-04-25T00:41:31.614Z,13.60
2018-04-25T00:43:59.063Z,13.60
2018-04-25T00:46:26.500Z,13.60
2018-04-25T00:48:54.748Z,13.60
2018-04-25T00:51:22.153Z,13.60
2018-04-25T00:53:49.592Z,13.60
2018-04-25T00:56:17.792Z,13.60
2018-04-25T00:58:45.236Z,13.60
2018-04-25T01:01:12.669Z,13.70
2018-04-25T01:03:40.909Z,13.60
2018-04-25T01:06:08.340Z,13.60
2018-04-25T01:08:35.770Z,13.60
2018-04-25T01:11:03.979Z,13.60
2018-04-25T01:13:31.416Z,13.60
2018-04-25T01:15:58.853Z,13.60
2018-04-25T01:18:27.054Z,13.60
2018-04-25T01:20:54.496Z,13.60
2018-04-25T01:23:22.753Z,13.60
2018-04-25T01:25:58.505Z,13.60
2018-04-25T01:28:46.569Z,13.60
2018-04-25T01:34:29.024Z,13.70
2018-04-25T01:37:13.994Z,13.70
2018-04-25T01:39:41.446Z,13.70
2018-04-25T01:42:20.401Z,13.70
2018-04-25T01:44:52.664Z,13.70
2018-04-25T01:47:31.369Z,13.80
2018-04-25T01:50:08.358Z,13.80
2018-04-25T01:52:47.709Z,13.70
2018-04-25T01:55:27.909Z,13.70
2018-04-25T01:58:07.316Z,13.70
2018-04-25T02:00:47.437Z,13.70
2018-04-25T02:03:14.869Z,13.70
2018-04-25T02:05:42.310Z,13.70
2018-04-25T02:08:09.745Z,13.70
2018-04-25T02:10:37.194Z,13.70
2018-04-25T02:13:05.407Z,13.70
2018-04-25T02:15:32.837Z,13.70
2018-04-25T02:18:00.282Z,13.60
2018-04-25T02:20:28.476Z,13.60
2018-04-25T02:22:55.929Z,13.60
2018-04-25T02:25:23.351Z,13.60
2018-04-25T02:27:51.564Z,13.50
2018-04-25T02:30:19.007Z,13.50
2018-04-25T02:32:46.449Z,13.50
2018-04-25T02:35:14.649Z,13.40
2018-04-25T02:37:42.092Z,13.40
2018-04-25T02:40:09.516Z,13.40
2018-04-25T02:42:36.958Z,13.40
2018-04-25T02:45:04.403Z,13.40
2018-04-25T02:47:31.841Z,13.40
2018-04-25T02:49:59.285Z,13.40
2018-04-25T02:52:26.729Z,13.30
2018-04-25T02:54:54.157Z,13.30
2018-04-25T02:57:22.367Z,13.30
2018-04-25T02:59:49.807Z,13.20
2018-04-25T03:02:18.021Z,13.20
2018-04-25T03:04:46.295Z,13.20
2018-04-25T03:07:13.665Z,13.20
2018-04-25T03:09:41.105Z,13.20
2018-04-25T03:12:08.555Z,13.20
2018-04-25T03:14:35.994Z,13.20
2018-04-25T03:17:03.432Z,13.20
2018-04-25T03:19:31.638Z,13.20
2018-04-25T03:21:59.069Z,13.20
2018-04-25T03:24:26.521Z,13.20
2018-04-25T03:26:53.954Z,13.20
2018-04-25T03:29:22.169Z,13.20
2018-04-25T03:31:49.605Z,13.20
2018-04-25T03:34:17.809Z,13.20
2018-04-25T03:36:45.253Z,13.20
2018-04-25T03:39:12.689Z,13.20
2018-04-25T03:41:40.129Z,13.20
2018-04-25T03:44:08.341Z,13.20
2018-04-25T03:46:35.765Z,13.20
2018-04-25T03:49:03.972Z,13.20
2018-04-25T03:51:31.405Z,13.10
2018-04-25T03:53:58.840Z,13.20
2018-04-25T03:56:27.050Z,13.20
2018-04-25T03:58:54.489Z,13.10
2018-04-25T04:01:21.940Z,13.10
2018-04-25T04:03:51.124Z,13.10
2018-04-25T04:06:19.332Z,13.10
2018-04-25T04:08:46.770Z,13.10
2018-04-25T04:11:14.207Z,13.10
2018-04-25T04:13:42.418Z,13.00
2018-04-25T04:16:09.857Z,13.00
2018-04-25T04:18:37.326Z,13.00
2018-04-25T04:21:04.760Z,13.00
2018-04-25T04:23:32.964Z,13.00
2018-04-25T04:26:00.408Z,13.00
2018-04-25T04:28:27.846Z,13.00
2018-04-25T04:30:56.061Z,13.00
2018-04-25T04:33:23.498Z,13.00
2018-04-25T04:35:50.941Z,13.00
2018-04-25T04:38:19.137Z,13.00
2018-04-25T04:40:46.596Z,12.90
2018-04-25T04:43:14.042Z,13.00
2018-04-25T04:45:41.468Z,13.00
2018-04-25T04:48:09.673Z,12.90
2018-04-25T04:50:37.109Z,12.90
2018-04-25T04:53:04.550Z,12.90
2018-04-25T04:55:33.752Z,12.90
2018-04-25T04:58:01.957Z,12.90
2018-04-25T05:00:29.397Z,12.90
2018-04-25T05:02:56.825Z,12.90
2018-04-25T05:05:24.277Z,12.90
2018-04-25T05:07:51.729Z,12.90
2018-04-25T05:10:19.176Z,12.90
2018-04-25T05:12:46.608Z,13.00
2018-04-25T05:15:14.052Z,13.00
2018-04-25T05:17:41.488Z,13.00
2018-04-25T05:20:08.925Z,13.00
2018-04-25T05:22:37.201Z,13.00
2018-04-25T05:25:05.414Z,13.00
2018-04-25T05:27:32.861Z,13.00
2018-04-25T05:30:00.315Z,13.00
2018-04-25T05:32:27.737Z,13.00
2018-04-25T05:34:55.952Z,13.00
2018-04-25T05:37:23.380Z,13.00
2018-04-25T05:39:51.590Z,13.00
2018-04-25T05:42:19.048Z,13.00
2018-04-25T05:44:46.810Z,13.00
2018-04-25T05:47:14.438Z,12.90
2018-04-25T05:49:42.649Z,12.60
2018-04-25T05:52:10.083Z,12.60
2018-04-25T05:54:39.834Z,12.50
2018-04-25T05:57:08.442Z,12.40
2018-04-25T05:59:39.915Z,12.30
2018-04-25T06:02:12.177Z,12.20
2018-04-25T06:04:43.630Z,12.20
2018-04-25T06:07:14.982Z,12.10
2018-04-25T06:09:46.942Z,12.10
2018-04-25T06:12:15.240Z,12.00
2018-04-25T06:14:42.673Z,12.00
2018-04-25T06:17:10.880Z,12.00
2018-04-25T06:19:38.316Z,12.00
2018-04-25T06:22:06.525Z,11.90
2018-04-25T06:24:33.958Z,11.90
2018-04-25T06:27:01.398Z,11.90
2018-04-25T06:29:29.597Z,11.90
2018-04-25T06:31:57.043Z,11.90
2018-04-25T06:34:24.473Z,11.90
2018-04-25T06:36:52.688Z,11.90
2018-04-25T06:39:20.135Z,11.90
2018-04-25T06:41:47.566Z,11.90
2018-04-25T06:44:15.772Z,11.80
2018-04-25T06:46:43.218Z,11.90
2018-04-25T06:49:11.836Z,11.80
2018-04-25T06:51:40.570Z,11.80
2018-04-25T06:54:08.182Z,11.70
2018-04-25T06:56:35.624Z,11.70
2018-04-25T06:59:03.056Z,11.70
2018-04-25T07:01:30.497Z,11.70
2018-04-25T07:03:58.836Z,11.70
2018-04-25T07:06:26.280Z,11.60
2018-04-25T07:08:53.728Z,11.60
2018-04-25T07:11:21.182Z,11.60
2018-04-25T07:13:48.625Z,11.50
2018-04-25T07:16:16.079Z,11.50
2018-04-25T07:18:43.511Z,11.50
2018-04-25T07:21:12.853Z,11.40
2018-04-25T07:23:41.134Z,11.40
2018-04-25T07:26:08.569Z,11.40
2018-04-25T07:28:40.039Z,11.40
2018-04-25T07:31:07.488Z,11.40
2018-04-25T07:33:35.196Z,11.40
2018-04-25T07:36:03.411Z,11.40
2018-04-25T07:38:30.855Z,11.40
2018-04-25T07:40:58.289Z,11.40
2018-04-25T07:43:26.503Z,11.30
2018-04-25T07:45:53.963Z,11.30
2018-04-25T07:48:21.377Z,11.30
2018-04-25T07:50:49.576Z,11.40
2018-04-25T07:53:17.016Z,11.40
2018-04-25T07:55:44.449Z,11.50
2018-04-25T07:58:12.694Z,11.60
2018-04-25T08:00:40.132Z,11.60
2018-04-25T08:03:07.580Z,11.70
2018-04-25T08:05:35.829Z,11.80
2018-04-25T08:08:04.045Z,12.00
2018-04-25T08:10:33.740Z,12.10
2018-04-25T08:13:13.026Z,12.10
2018-04-25T08:15:52.364Z,12.20
2018-04-25T08:18:32.420Z,12.40
2018-04-25T08:21:13.350Z,12.50
2018-04-25T08:23:40.850Z,12.50
2018-04-25T08:26:08.236Z,12.60
2018-04-25T08:28:35.690Z,12.70
2018-04-25T08:31:03.121Z,12.70
2018-04-25T08:33:31.381Z,12.90
2018-04-25T08:35:58.764Z,12.90
2018-04-25T08:38:26.210Z,12.90
2018-04-25T08:40:54.482Z,13.00
2018-04-25T08:43:23.011Z,13.10
2018-04-25T08:45:50.477Z,13.10
2018-04-25T08:48:17.949Z,13.10
2018-04-25T08:50:45.397Z,13.10
2018-04-25T08:53:12.837Z,13.20
2018-04-25T08:55:40.268Z,13.30
2018-04-25T08:58:07.738Z,13.40
2018-04-25T09:00:35.180Z,13.50
2018-04-25T09:03:02.612Z,13.60
2018-04-25T09:05:30.813Z,13.60
2018-04-25T09:07:59.208Z,13.60
2018-04-25T09:10:26.646Z,13.70
2018-04-25T09:12:54.089Z,13.70
2018-04-25T09:15:21.522Z,13.70
2018-04-25T09:17:49.730Z,13.80
2018-04-25T09:20:17.247Z,13.70
2018-04-25T09:22:44.613Z,13.90
2018-04-25T09:25:12.854Z,14.30
2018-04-25T09:27:40.298Z,14.30
2018-04-25T09:30:07.743Z,14.40
2018-04-25T09:32:35.233Z,14.40
2018-04-25T09:35:02.625Z,14.40
2018-04-25T09:37:30.065Z,14.30
2018-04-25T09:39:58.270Z,14.30
2018-04-25T09:42:25.697Z,14.30
2018-04-25T09:44:53.912Z,14.80
2018-04-25T09:47:21.353Z,14.80
2018-04-25T09:49:48.792Z,15.10
2018-04-25T09:52:16.230Z,15.30
2018-04-25T09:54:43.664Z,15.30
2018-04-25T09:57:11.148Z,15.40
2018-04-25T09:59:39.353Z,15.40
2018-04-25T10:02:06.791Z,15.40
2018-04-25T10:04:34.229Z,15.50
2018-04-25T10:07:02.439Z,15.60
2018-04-25T10:09:29.876Z,15.60
2018-04-25T10:11:58.082Z,15.70
2018-04-25T10:14:25.557Z,15.70
2018-04-25T10:16:52.967Z,15.70
2018-04-25T10:19:20.408Z,15.70
2018-04-25T10:21:48.610Z,15.50
2018-04-25T10:24:16.054Z,15.40
2018-04-25T10:26:43.493Z,15.30
2018-04-25T10:29:11.697Z,14.80
2018-04-25T10:31:39.137Z,14.80
2018-04-25T10:34:06.586Z,14.80
2018-04-25T10:36:34.788Z,14.70
2018-04-25T10:39:02.314Z,14.70
2018-04-25T10:41:29.678Z,14.80
2018-04-25T10:43:57.133Z,14.90
2018-04-25T10:46:25.329Z,14.90
2018-04-25T10:48:52.775Z,14.80
2018-04-25T10:51:20.212Z,14.70
2018-04-25T10:53:48.413Z,14.40
2018-04-25T10:56:15.863Z,14.40
2018-04-25T10:58:43.307Z,14.30
2018-04-25T11:01:11.522Z,14.00
2018-04-25T11:03:38.970Z,14.00
2018-04-25T11:06:06.417Z,13.90
2018-04-25T11:08:33.845Z,13.80
2018-04-25T11:11:01.290Z,13.70
2018-04-25T11:13:29.494Z,13.70
2018-04-25T11:15:57.096Z,13.70
2018-04-25T11:18:24.531Z,13.80
2018-04-25T11:20:51.980Z,13.80
2018-04-25T11:23:19.424Z,13.90
2018-04-25T11:25:46.884Z,13.90
2018-04-25T11:28:14.316Z,14.00
2018-04-25T11:30:41.759Z,14.00
2018-04-25T11:33:09.955Z,14.10
2018-04-25T11:35:37.396Z,14.10
2018-04-25T11:38:05.597Z,14.10
2018-04-25T11:40:33.051Z,14.00
2018-04-25T11:43:00.485Z,14.10
2018-04-25T11:45:27.928Z,14.10
2018-04-25T11:47:56.125Z,14.20
2018-04-25T11:50:23.569Z,14.20
2018-04-25T11:52:51.777Z,14.30
2018-04-25T11:55:19.218Z,14.30
2018-04-25T11:57:46.653Z,14.30
2018-04-25T12:00:14.880Z,14.60
2018-04-25T12:02:42.309Z,14.60
2018-04-25T12:05:09.748Z,14.80
2018-04-25T12:07:37.184Z,15.10
2018-04-25T12:10:05.735Z,15.60
2018-04-25T12:12:37.731Z,15.70
2018-04-25T12:15:07.876Z,15.70
2018-04-25T12:17:39.681Z,15.70
2018-04-25T12:20:11.293Z,15.60
2018-04-25T12:22:46.776Z,15.60
2018-04-25T12:27:57.740Z,15.20
2018-04-25T12:30:28.597Z,15.20
2018-04-25T12:32:56.025Z,15.10
2018-04-25T12:35:23.482Z,14.90
2018-04-25T12:37:50.928Z,14.80
2018-04-25T12:40:18.374Z,14.70
2018-04-25T12:42:46.585Z,14.60
2018-04-25T12:45:14.015Z,14.50
2018-04-25T12:47:41.457Z,14.50
2018-04-25T12:50:08.896Z,14.50
2018-04-25T12:52:37.129Z,14.80
2018-04-25T12:55:04.572Z,14.80
2018-04-25T12:57:32.021Z,15.00
2018-04-25T12:59:59.457Z,15.10
2018-04-25T13:02:26.897Z,15.20
2018-04-25T13:04:55.101Z,14.90
2018-04-25T13:07:22.537Z,14.90
2018-04-25T13:09:50.758Z,14.60
2018-04-25T13:12:22.266Z,14.60
2018-04-25T13:14:53.771Z,14.30
2018-04-25T13:17:23.956Z,14.30
2018-04-25T13:19:54.832Z,14.20
2018-04-25T13:22:26.719Z,13.90
2018-04-25T13:24:54.921Z,14.00
2018-04-25T13:27:22.356Z,14.10
2018-04-25T13:29:50.765Z,14.30
2018-04-25T13:32:18.207Z,14.10
2018-04-25T13:34:45.656Z,14.10
2018-04-25T13:37:13.846Z,14.00
2018-04-25T13:39:41.280Z,14.00
2018-04-25T13:42:09.484Z,13.80
2018-04-25T13:44:36.931Z,13.80
2018-04-25T13:47:04.369Z,13.80
2018-04-25T13:49:32.573Z,13.70
2018-04-25T13:52:00.004Z,13.70
2018-04-25T13:54:27.435Z,13.70
2018-04-25T13:56:55.650Z,13.80
2018-04-25T13:59:23.084Z,13.80
2018-04-25T14:01:51.304Z,14.00
2018-04-25T14:04:18.743Z,14.00
2018-04-25T14:06:46.185Z,14.10
2018-04-25T14:09:13.861Z,14.10
2018-04-25T14:11:41.328Z,14.20
2018-04-25T14:14:08.777Z,14.20
2018-04-25T14:16:37.309Z,14.50
2018-04-25T14:19:04.928Z,14.80
2018-04-25T14:21:32.488Z,15.20
2018-04-25T14:24:00.093Z,15.50
2018-04-25T14:26:27.777Z,15.70
2018-04-25T14:28:55.473Z,15.90
2018-04-25T14:31:23.162Z,16.10
2018-04-25T14:33:51.416Z,15.90
2018-04-25T14:36:18.947Z,15.80
2018-04-25T14:38:46.491Z,15.70
2018-04-25T14:41:14.197Z,15.50
2018-04-25T14:43:42.509Z,15.30
2018-04-25T14:46:10.724Z,15.30
2018-04-25T14:48:38.157Z,15.20
2018-04-25T14:51:05.604Z,15.20
2018-04-25T14:53:33.803Z,15.10
2018-04-25T14:56:01.248Z,15.10
2018-04-25T14:58:28.692Z,15.10
2018-04-25T15:00:56.909Z,15.30
2018-04-25T15:03:24.350Z,15.20
2018-04-25T15:05:51.790Z,15.40
2018-04-25T15:08:19.230Z,15.50
2018-04-25T15:10:47.438Z,15.60
2018-04-25T15:13:14.880Z,15.60
2018-04-25T15:15:42.320Z,15.60
2018-04-25T15:18:11.548Z,15.40
2018-04-25T15:20:39.793Z,15.40
2018-04-25T15:23:07.997Z,15.30
2018-04-25T15:25:36.341Z,15.30
2018-04-25T15:28:04.541Z,15.10
2018-04-25T15:30:32.764Z,15.10
2018-04-25T15:33:00.205Z,15.10
2018-04-25T15:35:27.646Z,15.00
2018-04-25T15:37:55.117Z,15.00
2018-04-25T15:40:22.530Z,15.00
2018-04-25T15:42:50.733Z,15.10
2018-04-25T15:45:18.169Z,15.00
2018-04-25T15:47:45.602Z,15.10
2018-04-25T15:50:13.809Z,15.10
2018-04-25T15:52:41.240Z,15.10
2018-04-25T15:55:08.692Z,15.10
2018-04-25T15:57:36.884Z,15.10
2018-04-25T16:00:04.348Z,15.10
2018-04-25T16:02:31.789Z,15.10
2018-04-25T16:04:59.216Z,15.10
2018-04-25T16:07:27.431Z,15.10
2018-04-25T16:09:54.913Z,15.10
2018-04-25T16:12:22.431Z,15.10
2018-04-25T16:14:49.798Z,15.00
2018-04-25T16:17:17.231Z,15.00
2018-04-25T16:19:45.439Z,15.00
2018-04-25T16:22:13.644Z,15.00
2018-04-25T16:24:41.090Z,15.00
2018-04-25T16:27:08.533Z,14.90
2018-04-25T16:29:35.968Z,14.90
2018-04-25T16:32:03.413Z,14.90
2018-04-25T16:34:30.857Z,14.80
2018-04-25T16:36:59.071Z,14.80
2018-04-25T16:39:26.511Z,14.80
2018-04-25T16:41:53.955Z,14.80
2018-04-25T16:44:21.396Z,14.80
2018-04-25T16:46:49.623Z,14.70
2018-04-25T16:49:17.037Z,14.70
2018-04-25T16:51:45.244Z,14.70
2018-04-25T16:54:13.448Z,14.90
2018-04-25T16:56:40.890Z,14.90
2018-04-25T16:59:09.097Z,15.70
2018-04-25T17:01:36.537Z,15.70
2018-04-25T17:04:04.006Z,16.30
2018-04-25T17:06:31.449Z,16.90
2018-04-25T17:08:58.878Z,17.50
2018-04-25T17:11:26.321Z,18.10
2018-04-25T17:13:53.752Z,18.60
2018-04-25T17:16:25.391Z,19.70
2018-04-25T17:18:56.894Z,19.60
2018-04-25T17:21:24.336Z,19.60
2018-04-25T17:23:51.781Z,19.70
2018-04-25T17:26:19.221Z,19.80
2018-04-25T17:28:47.448Z,19.70
2018-04-25T17:31:14.953Z,19.60
2018-04-25T17:33:43.156Z,18.00
2018-04-25T17:36:10.584Z,17.90
2018-04-25T17:38:38.789Z,16.50
2018-04-25T17:41:06.222Z,16.50
2018-04-25T17:43:34.426Z,15.60
2018-04-25T17:46:01.874Z,15.60
2018-04-25T17:48:29.316Z,15.30
2018-04-25T17:50:56.754Z,15.00
2018-04-25T17:53:24.966Z,14.60
2018-04-25T17:55:52.412Z,14.60
2018-04-25T17:58:19.840Z,14.40
2018-04-25T18:00:48.371Z,14.10
2018-04-25T18:03:15.899Z,14.10
2018-04-25T18:05:43.542Z,14.00
2018-04-25T18:08:11.001Z,14.00
2018-04-25T18:10:39.656Z,13.80
2018-04-25T18:13:07.093Z,13.80
2018-04-25T18:15:34.525Z,13.70
2018-04-25T18:18:01.971Z,13.60
2018-04-25T18:20:29.394Z,13.60
2018-04-25T18:22:57.598Z,13.40
2018-04-25T18:25:25.033Z,13.40
2018-04-25T18:27:53.237Z,13.30
2018-04-25T18:30:20.689Z,13.30
2018-04-25T18:32:48.109Z,13.20
2018-04-25T18:35:16.322Z,13.10
2018-04-25T18:37:43.764Z,13.10
2018-04-25T18:40:11.196Z,13.10
2018-04-25T18:42:39.473Z,12.90
2018-04-25T18:45:06.837Z,12.90
2018-04-25T18:47:35.046Z,12.80
2018-04-25T18:50:02.486Z,12.90
2018-04-25T18:52:29.921Z,12.70
2018-04-25T18:54:58.113Z,12.60
2018-04-25T18:57:25.560Z,12.60
2018-04-25T18:59:53.280Z,12.60
2018-04-25T19:02:21.592Z,12.50
2018-04-25T19:04:49.802Z,12.40
2018-04-25T19:07:17.233Z,12.40
2018-04-25T19:09:44.733Z,12.40
2018-04-25T19:12:12.122Z,12.30
2018-04-25T19:14:40.327Z,12.20
2018-04-25T19:17:07.756Z,12.20
2018-04-25T19:19:35.971Z,12.20
2018-04-25T19:22:03.402Z,12.10
2018-04-25T19:24:30.841Z,12.10
2018-04-25T19:26:59.040Z,12.00
2018-04-25T19:29:26.481Z,12.00
2018-04-25T19:31:53.912Z,12.00
2018-04-25T19:34:21.357Z,11.90
2018-04-25T19:36:48.797Z,11.90
2018-04-25T19:39:16.237Z,11.90
2018-04-25T19:41:43.689Z,11.80
2018-04-25T19:44:11.122Z,11.80
2018-04-25T19:46:38.558Z,11.70
2018-04-25T19:49:06.765Z,11.70
2018-04-25T19:51:34.193Z,11.70
2018-04-25T19:54:02.409Z,11.60
2018-04-25T19:56:29.849Z,11.60
2018-04-25T19:58:57.297Z,11.50
2018-04-25T20:01:24.733Z,11.50
2018-04-25T20:03:52.937Z,11.40
2018-04-25T20:06:20.375Z,11.40
2018-04-25T20:08:47.816Z,11.40
2018-04-25T20:11:16.026Z,11.30
2018-04-25T20:13:43.468Z,11.30
2018-04-25T20:16:10.898Z,11.30
2018-04-25T20:18:39.113Z,11.20
2018-04-25T20:21:06.549Z,11.20
2018-04-25T20:23:33.976Z,11.10
2018-04-25T20:26:02.192Z,11.00
2018-04-25T20:28:29.627Z,11.00
2018-04-25T20:30:57.833Z,10.90
2018-04-25T20:33:25.270Z,10.90
2018-04-25T20:35:52.717Z,10.90
2018-04-25T20:38:20.140Z,10.90
2018-04-25T20:40:47.590Z,10.80
2018-04-25T20:43:15.026Z,10.70
2018-04-25T20:45:42.466Z,10.70
2018-04-25T20:48:09.909Z,10.70
2018-04-25T20:50:37.340Z,10.70
2018-04-25T20:53:05.541Z,10.60
2018-04-25T20:58:13.457Z,10.60
2018-04-25T21:00:40.897Z,10.50
2018-04-25T21:03:08.379Z,10.40
2018-04-25T21:05:36.536Z,10.40
2018-04-25T21:08:03.965Z,10.40
2018-04-25T21:10:32.178Z,10.30
2018-04-25T21:12:59.609Z,10.30
2018-04-25T21:15:27.050Z,10.20
2018-04-25T21:17:55.257Z,10.20
2018-04-25T21:20:23.461Z,10.10
2018-04-25T21:22:50.897Z,10.10
2018-04-25T21:25:18.337Z,10.10
2018-04-25T21:27:45.768Z,10.10
2018-04-25T21:30:13.969Z,10.00
2018-04-25T21:32:41.403Z,9.90
2018-04-25T21:35:09.609Z,9.90
2018-04-25T21:37:37.087Z,9.90
2018-04-25T21:40:04.520Z,9.90
2018-04-25T21:42:31.952Z,9.80
2018-04-25T21:44:59.384Z,9.80
2018-04-25T21:47:27.577Z,9.70
2018-04-25T21:49:55.134Z,9.70
2018-04-25T21:52:22.560Z,9.70
2018-04-25T21:54:49.994Z,9.60
2018-04-25T21:57:17.428Z,9.60
2018-04-25T21:59:44.853Z,9.60
2018-04-25T22:02:12.293Z,9.50
2018-04-25T22:04:40.497Z,9.40
2018-04-25T22:07:07.925Z,9.40
2018-04-25T22:09:36.121Z,9.40
2018-04-25T22:12:03.557Z,9.40
2018-04-25T22:14:31.757Z,9.30
2018-04-25T22:16:59.195Z,9.30
2018-04-25T22:19:27.389Z,9.10
2018-04-25T22:21:54.820Z,9.20
2018-04-25T22:24:23.017Z,9.20
2018-04-25T22:26:50.463Z,9.20
2018-04-25T22:29:17.898Z,9.20
2018-04-25T22:31:46.093Z,9.10
2018-04-25T22:34:14.301Z,9.00
2018-04-25T22:36:41.733Z,9.00
2018-04-25T22:39:09.165Z,9.30
2018-04-25T22:41:37.365Z,8.90
2018-04-25T22:44:04.798Z,8.90
2018-04-25T22:46:32.997Z,8.80
2018-04-25T22:49:00.433Z,8.80
2018-04-25T22:51:27.863Z,8.80
2018-04-25T22:53:56.059Z,8.70
2018-04-25T22:56:24.271Z,8.70
2018-04-25T22:58:52.475Z,8.70
2018-04-25T23:01:19.914Z,8.60
2018-04-25T23:03:47.347Z,8.60
2018-04-25T23:06:14.781Z,8.60
2018-04-25T23:08:42.209Z,8.60
2018-04-25T23:11:10.415Z,8.50
2018-04-25T23:13:37.842Z,8.50
2018-04-25T23:16:05.277Z,8.50
2018-04-25T23:18:32.705Z,8.50
2018-04-25T23:21:00.139Z,8.50
2018-04-25T23:23:27.578Z,8.50
2018-04-25T23:25:54.996Z,8.40
2018-04-25T23:28:22.437Z,8.40
2018-04-25T23:30:49.873Z,8.40
2018-04-25T23:33:17.337Z,8.40
2018-04-25T23:35:44.774Z,8.40
2018-04-25T23:38:12.204Z,8.30
2018-04-25T23:40:39.633Z,8.30
2018-04-25T23:43:07.064Z,8.30
2018-04-25T23:45:34.512Z,8.30
2018-04-25T23:48:01.950Z,8.20
2018-04-25T23:50:29.377Z,8.20
2018-04-25T23:52:57.577Z,8.20
2018-04-25T23:55:25.006Z,8.20
2018-04-25T23:57:53.205Z,8.20
